createdAt,value
2022-10-13T00:01:21.774Z,30.30
2022-10-13T00:03:55.818Z,28.50
2022-10-13T00:06:27.531Z,31.50
2022-10-13T00:09:01.201Z,25.50
2022-10-13T00:11:35.887Z,25.90
2022-10-13T00:14:09.098Z,25.30
2022-10-13T00:16:38.801Z,30.00
2022-10-13T00:19:12.894Z,29.30
2022-10-13T00:21:48.083Z,28.70
2022-10-13T00:24:18.253Z,30.40
2022-10-13T00:26:53.332Z,32.80
2022-10-13T00:29:23.299Z,28.70
2022-10-13T00:31:56.429Z,27.50
2022-10-13T00:34:26.406Z,27.10
2022-10-13T00:36:55.788Z,26.90
2022-10-13T00:39:25.802Z,28.10
2022-10-13T00:42:03.131Z,30.40
2022-10-13T00:45:08.308Z,25.50
2022-10-13T00:47:48.936Z,28.20
2022-10-13T00:50:23.816Z,30.70
2022-10-13T00:53:01.991Z,27.80
2022-10-13T00:55:37.815Z,26.90
2022-10-13T00:58:11.408Z,27.80
2022-10-13T01:00:53.768Z,30.40
2022-10-13T01:03:23.095Z,30.30
2022-10-13T01:05:59.202Z,27.80
2022-10-13T01:08:32.801Z,27.10
2022-10-13T01:11:49.031Z,27.50
2022-10-13T01:14:54.871Z,29.60
2022-10-13T01:17:33.937Z,27.60
2022-10-13T01:20:25.896Z,28.60
2022-10-13T01:23:15.712Z,28.10
2022-10-13T01:26:22.404Z,27.50
2022-10-13T01:29:06.758Z,27.80
2022-10-13T01:31:49.089Z,30.30
2022-10-13T01:34:37.415Z,31.30
2022-10-13T01:37:33.268Z,30.20
2022-10-13T01:40:12.982Z,31.00
2022-10-13T01:43:03.783Z,30.30
2022-10-13T01:45:58.121Z,32.70
2022-10-13T01:48:46.040Z,30.90
2022-10-13T01:51:20.780Z,31.00
2022-10-13T01:53:56.073Z,30.10
2022-10-13T01:56:29.897Z,29.20
2022-10-13T01:59:09.135Z,28.60
2022-10-13T02:01:57.970Z,27.60
2022-10-13T02:04:48.172Z,31.00
2022-10-13T02:07:30.827Z,31.40
2022-10-13T02:10:04.042Z,31.80
2022-10-13T02:12:52.159Z,28.00
2022-10-13T02:15:34.114Z,31.00
2022-10-13T02:18:05.588Z,32.70
2022-10-13T02:20:36.962Z,26.80
2022-10-13T02:23:12.676Z,26.60
2022-10-13T02:25:44.161Z,25.70
2022-10-13T02:28:18.920Z,25.90
2022-10-13T02:30:50.474Z,30.60
2022-10-13T02:33:21.433Z,30.00
2022-10-13T02:35:53.554Z,31.00
2022-10-13T02:38:29.972Z,31.20
2022-10-13T02:41:03.169Z,26.60
2022-10-13T02:43:38.080Z,31.40
2022-10-13T02:46:07.737Z,28.80
2022-10-13T02:48:39.716Z,29.30
2022-10-13T02:51:10.140Z,28.80
2022-10-13T02:53:43.333Z,29.30
2022-10-13T02:56:14.396Z,30.20
2022-10-13T02:58:47.866Z,29.00
2022-10-13T03:01:18.629Z,27.50
2022-10-13T03:04:12.336Z,29.60
2022-10-13T03:06:45.251Z,27.60
2022-10-13T03:09:15.917Z,31.10
2022-10-13T03:11:47.366Z,28.30
2022-10-13T03:14:23.282Z,28.80
2022-10-13T03:17:00.784Z,29.90
2022-10-13T03:19:32.075Z,29.60
2022-10-13T03:22:02.530Z,31.30
2022-10-13T03:24:34.454Z,29.20
2022-10-13T03:27:04.612Z,29.40
2022-10-13T03:29:38.045Z,30.90
2022-10-13T03:32:11.305Z,34.90
2022-10-13T03:34:42.239Z,31.40
2022-10-13T03:37:15.996Z,32.40
2022-10-13T03:39:54.933Z,32.10
2022-10-13T03:42:24.691Z,32.30
2022-10-13T03:44:58.219Z,32.60
2022-10-13T03:47:29.095Z,31.60
2022-10-13T03:50:02.625Z,36.40
2022-10-13T03:52:33.911Z,32.50
2022-10-13T03:55:05.398Z,28.10
2022-10-13T03:57:34.202Z,28.60
2022-10-13T04:00:05.226Z,32.60
2022-10-13T04:02:42.285Z,30.10
2022-10-13T04:05:12.437Z,31.10
2022-10-13T04:07:43.737Z,28.10
2022-10-13T04:10:21.661Z,29.70
2022-10-13T04:12:52.518Z,31.00
2022-10-13T04:15:22.057Z,32.80
2022-10-13T04:17:55.231Z,30.40
2022-10-13T04:20:25.938Z,33.70
2022-10-13T04:22:58.943Z,33.70
2022-10-13T04:25:31.458Z,33.50
2022-10-13T04:28:02.289Z,34.40
2022-10-13T04:30:35.106Z,31.50
2022-10-13T04:33:06.311Z,32.90
2022-10-13T04:35:50.349Z,33.60
2022-10-13T04:38:23.551Z,32.30
2022-10-13T04:40:57.232Z,35.00
2022-10-13T04:43:31.593Z,33.50
2022-10-13T04:46:08.406Z,33.20
2022-10-13T04:48:41.954Z,31.30
2022-10-13T04:51:20.689Z,33.30
2022-10-13T04:53:56.762Z,34.70
2022-10-13T04:56:30.909Z,33.40
2022-10-13T04:59:13.657Z,34.70
2022-10-13T05:01:51.145Z,31.70
2022-10-13T05:04:26.547Z,35.00
2022-10-13T05:07:18.324Z,33.60
2022-10-13T05:09:54.558Z,30.50
2022-10-13T05:12:26.151Z,34.60
2022-10-13T05:14:55.189Z,32.20
2022-10-13T05:17:23.562Z,32.70
2022-10-13T05:19:51.943Z,34.10
2022-10-13T05:22:20.902Z,34.20
2022-10-13T05:24:50.866Z,30.40
2022-10-13T05:27:20.560Z,36.20
2022-10-13T05:29:51.843Z,31.20
2022-10-13T05:32:23.582Z,34.40
2022-10-13T05:34:56.062Z,33.80
2022-10-13T05:37:24.581Z,33.10
2022-10-13T05:39:56.305Z,34.00
2022-10-13T05:42:25.012Z,30.20
2022-10-13T05:44:53.392Z,32.50
2022-10-13T05:47:23.316Z,33.10
2022-10-13T05:49:55.928Z,35.50
2022-10-13T05:52:25.680Z,38.30
2022-10-13T05:55:00.882Z,37.40
2022-10-13T05:57:41.283Z,36.50
2022-10-13T06:00:13.576Z,36.20
2022-10-13T06:02:49.960Z,37.00
2022-10-13T06:05:20.871Z,34.30
2022-10-13T06:07:53.118Z,33.90
2022-10-13T06:10:25.758Z,33.80
2022-10-13T06:12:57.371Z,34.90
2022-10-13T06:15:28.572Z,36.20
2022-10-13T06:17:59.261Z,39.00
2022-10-13T06:20:30.194Z,38.40
2022-10-13T06:22:58.856Z,40.60
2022-10-13T06:25:27.119Z,38.60
2022-10-13T06:28:00.209Z,34.80
2022-10-13T06:30:31.950Z,39.10
2022-10-13T06:33:00.684Z,34.90
2022-10-13T06:35:29.163Z,36.00
2022-10-13T06:37:58.458Z,31.30
2022-10-13T06:40:26.808Z,33.00
2022-10-13T06:42:55.063Z,30.90
2022-10-13T06:45:26.266Z,32.30
2022-10-13T06:47:56.424Z,30.00
2022-10-13T06:50:26.198Z,35.30
2022-10-13T06:52:56.479Z,34.40
2022-10-13T06:55:24.775Z,30.50
2022-10-13T06:57:55.236Z,33.50
2022-10-13T07:00:24.011Z,31.00
2022-10-13T07:02:53.006Z,32.80
2022-10-13T07:05:21.296Z,29.80
2022-10-13T07:07:54.260Z,32.80
2022-10-13T07:10:25.180Z,30.20
2022-10-13T07:12:53.404Z,30.40
2022-10-13T07:15:24.599Z,27.10
2022-10-13T07:17:54.197Z,29.90
2022-10-13T07:20:24.840Z,30.20
2022-10-13T07:22:54.920Z,30.00
2022-10-13T07:25:23.885Z,29.70
2022-10-13T07:27:55.011Z,29.50
2022-10-13T07:30:23.376Z,28.70
2022-10-13T07:32:52.148Z,30.60
2022-10-13T07:35:23.194Z,28.40
2022-10-13T07:37:57.488Z,29.80
2022-10-13T07:40:27.051Z,28.30
2022-10-13T07:42:57.078Z,30.00
2022-10-13T07:45:25.619Z,28.50
2022-10-13T07:47:56.522Z,27.10
2022-10-13T07:50:27.429Z,28.00
2022-10-13T07:52:55.623Z,28.00
2022-10-13T07:55:25.123Z,23.70
2022-10-13T07:57:55.700Z,23.50
2022-10-13T08:00:23.719Z,23.70
2022-10-13T08:02:51.889Z,26.00
2022-10-13T08:05:20.196Z,25.70
2022-10-13T08:07:48.563Z,26.50
2022-10-13T08:10:21.144Z,24.30
2022-10-13T08:12:49.892Z,24.00
2022-10-13T08:15:18.811Z,24.20
2022-10-13T08:17:47.080Z,24.00
2022-10-13T08:20:15.230Z,23.00
2022-10-13T08:22:43.256Z,23.50
2022-10-13T08:25:11.492Z,23.50
2022-10-13T08:27:50.533Z,27.30
2022-10-13T08:30:20.377Z,22.10
2022-10-13T08:32:49.091Z,23.30
2022-10-13T08:35:17.367Z,23.90
2022-10-13T08:37:45.523Z,25.70
2022-10-13T08:40:21.066Z,25.10
2022-10-13T08:42:50.219Z,26.10
2022-10-13T08:45:46.154Z,27.70
2022-10-13T08:48:38.747Z,25.50
2022-10-13T08:51:08.865Z,21.90
2022-10-13T08:53:42.006Z,26.90
2022-10-13T08:56:20.585Z,28.70
2022-10-13T08:58:51.747Z,22.70
2022-10-13T09:01:21.299Z,22.20
2022-10-13T09:04:15.655Z,27.30
2022-10-13T09:06:54.262Z,21.50
2022-10-13T09:09:25.561Z,23.50
2022-10-13T09:11:54.866Z,26.30
2022-10-13T09:14:29.895Z,23.60
2022-10-13T09:17:20.630Z,20.10
2022-10-13T09:20:21.279Z,21.30
2022-10-13T09:23:23.043Z,19.60
2022-10-13T09:25:53.310Z,23.60
2022-10-13T09:28:29.241Z,21.10
2022-10-13T09:31:16.242Z,18.20
2022-10-13T09:33:46.002Z,16.80
2022-10-13T09:36:16.307Z,14.80
2022-10-13T09:39:15.320Z,16.30
2022-10-13T09:41:46.135Z,18.70
2022-10-13T09:44:19.015Z,16.10
2022-10-13T09:46:55.522Z,16.30
2022-10-13T09:49:41.626Z,13.00
2022-10-13T09:52:12.525Z,14.10
2022-10-13T09:54:41.231Z,12.20
2022-10-13T09:57:30.734Z,13.00
2022-10-13T10:00:14.955Z,12.10
2022-10-13T10:03:02.186Z,12.10
2022-10-13T10:05:47.816Z,11.30
2022-10-13T10:08:28.941Z,14.40
2022-10-13T10:11:18.109Z,13.10
2022-10-13T10:13:47.383Z,12.20
2022-10-13T10:16:19.706Z,11.00
2022-10-13T10:19:15.634Z,13.60
2022-10-13T10:22:06.235Z,11.00
2022-10-13T10:24:59.510Z,11.60
2022-10-13T10:27:39.996Z,14.90
2022-10-13T10:30:20.529Z,12.80
2022-10-13T10:33:07.390Z,11.20
2022-10-13T10:35:56.792Z,11.60
2022-10-13T10:38:49.006Z,20.50
2022-10-13T10:41:36.719Z,10.20
2022-10-13T10:44:16.371Z,13.30
2022-10-13T10:46:51.191Z,10.70
2022-10-13T10:49:40.093Z,11.10
2022-10-13T10:52:19.430Z,11.70
2022-10-13T10:55:24.424Z,9.40
2022-10-13T10:58:32.373Z,10.30
2022-10-13T11:01:11.676Z,9.80
2022-10-13T11:04:13.188Z,8.00
2022-10-13T11:06:43.602Z,9.20
2022-10-13T11:09:14.849Z,9.00
2022-10-13T11:11:43.902Z,10.60
2022-10-13T11:14:30.501Z,9.30
2022-10-13T11:17:11.053Z,7.50
2022-10-13T11:19:45.255Z,13.50
2022-10-13T11:22:24.246Z,8.80
2022-10-13T11:25:15.853Z,8.50
2022-10-13T11:27:45.294Z,11.00
2022-10-13T11:30:42.174Z,9.10
2022-10-13T11:33:39.265Z,10.60
2022-10-13T11:36:40.709Z,9.10
2022-10-13T11:39:28.668Z,9.10
2022-10-13T11:42:16.650Z,11.00
2022-10-13T11:45:12.002Z,8.40
2022-10-13T11:48:01.241Z,10.70
2022-10-13T11:50:42.310Z,10.50
2022-10-13T11:53:14.912Z,7.10
2022-10-13T11:55:54.468Z,9.90
2022-10-13T11:58:26.457Z,9.50
2022-10-13T12:01:12.651Z,7.10
2022-10-13T12:03:44.515Z,6.90
2022-10-13T12:06:18.248Z,8.00
2022-10-13T12:08:51.290Z,9.30
2022-10-13T12:11:35.737Z,8.10
2022-10-13T12:14:09.929Z,6.80
2022-10-13T12:16:53.191Z,8.40
2022-10-13T12:19:26.014Z,7.90
2022-10-13T12:22:00.011Z,7.30
2022-10-13T12:24:31.893Z,8.00
2022-10-13T12:27:11.402Z,9.00
2022-10-13T12:29:43.995Z,9.40
2022-10-13T12:32:27.426Z,8.00
2022-10-13T12:34:56.630Z,9.60
2022-10-13T12:37:34.651Z,7.00
2022-10-13T12:40:06.354Z,8.10
2022-10-13T12:42:38.093Z,10.20
2022-10-13T12:45:07.487Z,13.30
2022-10-13T12:47:39.628Z,6.50
2022-10-13T12:50:40.799Z,8.30
2022-10-13T12:53:09.086Z,7.10
2022-10-13T12:55:48.857Z,6.90
2022-10-13T12:58:26.525Z,7.30
2022-10-13T13:01:35.849Z,10.10
2022-10-13T13:04:23.572Z,8.20
2022-10-13T13:07:00.950Z,6.90
2022-10-13T13:09:35.385Z,6.10
2022-10-13T13:12:14.000Z,8.60
2022-10-13T13:14:57.489Z,6.40
2022-10-13T13:17:56.651Z,9.20
2022-10-13T13:20:38.972Z,8.20
2022-10-13T13:23:11.507Z,7.60
2022-10-13T13:25:43.745Z,6.90
2022-10-13T13:28:16.829Z,8.80
2022-10-13T13:30:47.628Z,7.90
2022-10-13T13:33:19.399Z,6.10
2022-10-13T13:35:49.906Z,8.00
2022-10-13T13:38:20.535Z,7.70
2022-10-13T13:40:49.919Z,8.60
2022-10-13T13:43:22.481Z,8.40
2022-10-13T13:45:52.838Z,9.20
2022-10-13T13:48:27.331Z,6.40
2022-10-13T13:50:57.419Z,8.90
2022-10-13T13:53:30.708Z,7.00
2022-10-13T13:56:04.246Z,7.80
2022-10-13T13:58:39.193Z,6.00
2022-10-13T14:01:10.069Z,7.30
2022-10-13T14:03:41.471Z,5.50
2022-10-13T14:06:21.042Z,10.90
2022-10-13T14:08:53.976Z,7.10
2022-10-13T14:11:32.975Z,7.00
2022-10-13T14:14:04.450Z,8.00
2022-10-13T14:16:42.995Z,6.70
2022-10-13T14:19:13.486Z,7.40
2022-10-13T14:21:53.597Z,8.10
2022-10-13T14:24:40.577Z,11.30
2022-10-13T14:27:20.616Z,7.00
2022-10-13T14:29:52.278Z,7.30
2022-10-13T14:32:52.265Z,8.20
2022-10-13T14:35:45.614Z,7.80
2022-10-13T14:38:36.960Z,8.30
2022-10-13T14:41:39.230Z,7.20
2022-10-13T14:44:27.950Z,8.60
2022-10-13T14:47:00.563Z,8.10
2022-10-13T14:49:29.883Z,8.40
2022-10-13T14:52:07.541Z,9.30
2022-10-13T14:54:44.700Z,7.90
2022-10-13T14:57:16.870Z,7.80
2022-10-13T14:59:46.947Z,9.60
2022-10-13T15:02:15.661Z,9.50
2022-10-13T15:04:54.685Z,8.00
2022-10-13T15:07:24.056Z,9.30
2022-10-13T15:10:04.289Z,8.90
2022-10-13T15:12:34.435Z,9.30
2022-10-13T15:15:03.542Z,7.20
2022-10-13T15:17:34.851Z,9.40
2022-10-13T15:20:08.749Z,9.70
2022-10-13T15:22:41.373Z,12.10
2022-10-13T15:25:23.969Z,10.60
2022-10-13T15:28:10.038Z,9.70
2022-10-13T15:30:42.450Z,12.20
2022-10-13T15:33:16.431Z,9.60
2022-10-13T15:35:51.089Z,8.60
2022-10-13T15:38:21.384Z,10.80
2022-10-13T15:40:50.802Z,9.00
2022-10-13T15:43:19.643Z,11.30
2022-10-13T15:45:57.244Z,10.10
2022-10-13T15:48:26.930Z,9.70
2022-10-13T15:50:55.969Z,8.20
2022-10-13T15:53:25.680Z,10.30
2022-10-13T15:55:54.929Z,10.20
2022-10-13T15:58:24.887Z,10.80
2022-10-13T16:00:53.246Z,14.00
2022-10-13T16:03:21.980Z,9.50
2022-10-13T16:05:51.528Z,13.60
2022-10-13T16:08:20.211Z,12.50
2022-10-13T16:10:51.232Z,11.30
2022-10-13T16:13:21.764Z,14.20
2022-10-13T16:16:01.312Z,18.80
2022-10-13T16:18:34.933Z,12.70
2022-10-13T16:21:18.760Z,12.80
2022-10-13T16:23:49.661Z,10.80
2022-10-13T16:26:20.278Z,10.40
2022-10-13T16:28:50.119Z,8.80
2022-10-13T16:31:21.715Z,13.80
2022-10-13T16:33:52.065Z,13.30
2022-10-13T16:36:24.317Z,13.40
2022-10-13T16:38:57.143Z,16.30
2022-10-13T16:41:29.094Z,13.30
2022-10-13T16:43:58.418Z,19.40
2022-10-13T16:46:27.257Z,18.10
2022-10-13T16:48:55.649Z,20.50
2022-10-13T16:51:27.732Z,21.10
2022-10-13T16:54:04.199Z,22.70
2022-10-13T16:56:33.774Z,18.80
2022-10-13T16:59:06.030Z,16.20
2022-10-13T17:01:36.705Z,17.20
2022-10-13T17:04:06.787Z,15.40
2022-10-13T17:06:38.818Z,20.80
2022-10-13T17:09:11.247Z,15.60
2022-10-13T17:11:44.862Z,14.80
2022-10-13T17:14:15.064Z,16.90
2022-10-13T17:16:45.914Z,13.70
2022-10-13T17:19:17.985Z,13.80
2022-10-13T17:21:48.078Z,15.80
2022-10-13T17:24:20.557Z,19.90
2022-10-13T17:26:53.176Z,22.90
2022-10-13T17:29:29.344Z,31.40
2022-10-13T17:32:02.963Z,40.40
2022-10-13T17:34:33.013Z,38.70
2022-10-13T17:37:04.801Z,21.90
2022-10-13T17:39:36.175Z,18.00
2022-10-13T17:42:06.604Z,17.80
2022-10-13T17:44:39.244Z,16.40
2022-10-13T17:47:11.143Z,15.40
2022-10-13T17:49:40.894Z,16.80
2022-10-13T17:52:10.574Z,12.20
2022-10-13T17:54:41.850Z,16.20
2022-10-13T17:57:12.019Z,12.90
2022-10-13T17:59:41.497Z,14.40
2022-10-13T18:02:11.179Z,13.60
2022-10-13T18:04:43.697Z,22.60
2022-10-13T18:07:14.591Z,16.20
2022-10-13T18:09:47.386Z,15.20
2022-10-13T18:12:16.932Z,13.40
2022-10-13T18:14:47.326Z,21.40
2022-10-13T18:17:19.613Z,19.50
2022-10-13T18:19:51.122Z,25.10
2022-10-13T18:22:21.275Z,21.50
2022-10-13T18:24:56.028Z,23.00
2022-10-13T18:27:31.309Z,17.30
2022-10-13T18:30:00.686Z,21.20
2022-10-13T18:32:32.544Z,20.50
2022-10-13T18:35:03.279Z,20.70
2022-10-13T18:37:35.703Z,18.40
2022-10-13T18:40:05.582Z,18.00
2022-10-13T18:42:34.286Z,17.30
2022-10-13T18:45:03.925Z,17.10
2022-10-13T18:47:33.523Z,15.70
2022-10-13T18:50:03.420Z,16.10
2022-10-13T18:52:32.266Z,16.80
2022-10-13T18:55:01.009Z,18.20
2022-10-13T18:57:29.871Z,17.80
2022-10-13T19:00:01.062Z,17.60
2022-10-13T19:02:32.358Z,21.90
2022-10-13T19:05:01.313Z,18.60
2022-10-13T19:07:30.511Z,16.90
2022-10-13T19:10:00.150Z,17.10
2022-10-13T19:12:29.152Z,17.30
2022-10-13T19:14:58.469Z,20.90
2022-10-13T19:17:27.401Z,23.50
2022-10-13T19:19:56.684Z,21.70
2022-10-13T19:22:26.439Z,21.60
2022-10-13T19:24:56.042Z,20.60
2022-10-13T19:27:25.277Z,22.60
2022-10-13T19:29:54.092Z,24.00
2022-10-13T19:32:23.235Z,26.40
2022-10-13T19:34:51.524Z,26.50
2022-10-13T19:37:20.182Z,26.10
2022-10-13T19:39:50.630Z,27.40
2022-10-13T19:42:19.688Z,24.40
2022-10-13T19:44:48.265Z,26.70
2022-10-13T19:47:16.664Z,27.90
2022-10-13T19:49:53.947Z,29.80
2022-10-13T19:52:33.396Z,28.60
2022-10-13T19:55:10.973Z,30.20
2022-10-13T19:57:47.635Z,28.60
2022-10-13T20:00:24.643Z,29.00
2022-10-13T20:03:01.630Z,32.90
2022-10-13T20:05:39.571Z,27.90
2022-10-13T20:08:16.646Z,29.10
2022-10-13T20:10:52.046Z,27.70
2022-10-13T20:13:29.993Z,33.50
2022-10-13T20:16:15.047Z,28.80
2022-10-13T20:19:03.498Z,29.30
2022-10-13T20:21:43.171Z,27.00
2022-10-13T20:24:24.576Z,29.20
2022-10-13T20:27:03.228Z,30.50
2022-10-13T20:29:41.235Z,24.80
2022-10-13T20:32:20.933Z,25.30
2022-10-13T20:34:58.110Z,26.70
2022-10-13T20:37:37.311Z,24.20
2022-10-13T20:40:10.745Z,27.10
2022-10-13T20:42:44.264Z,26.70
2022-10-13T20:45:22.014Z,27.30
2022-10-13T20:47:51.620Z,27.20
2022-10-13T20:50:19.894Z,25.60
2022-10-13T20:52:48.429Z,25.60
2022-10-13T20:55:16.742Z,26.40
2022-10-13T20:57:45.773Z,28.20
2022-10-13T21:00:14.524Z,27.00
2022-10-13T21:02:42.937Z,27.50
2022-10-13T21:05:11.361Z,27.90
2022-10-13T21:07:42.543Z,31.20
2022-10-13T21:10:11.801Z,27.80
2022-10-13T21:12:41.398Z,28.70
2022-10-13T21:15:10.778Z,28.50
2022-10-13T21:17:42.344Z,28.60
2022-10-13T21:20:11.750Z,29.50
2022-10-13T21:22:40.509Z,30.10
2022-10-13T22:33:32.102Z,27.10
2022-10-13T22:36:00.193Z,30.30
2022-10-13T22:38:28.284Z,27.70
2022-10-13T22:41:01.703Z,26.20
2022-10-13T22:43:29.739Z,28.40
2022-10-13T22:45:59.003Z,25.80
2022-10-13T22:48:27.173Z,28.10
2022-10-13T22:50:55.262Z,26.50
2022-10-13T22:53:23.736Z,28.00
2022-10-13T22:55:51.798Z,31.80
2022-10-13T22:58:19.779Z,27.70
2022-10-13T23:00:49.010Z,26.20
2022-10-13T23:03:36.810Z,26.40
2022-10-13T23:06:06.823Z,27.20
2022-10-13T23:08:35.153Z,28.10
2022-10-13T23:11:03.318Z,25.60
2022-10-13T23:13:31.486Z,29.00
2022-10-13T23:16:09.369Z,24.10
2022-10-13T23:18:40.949Z,32.40
2022-10-13T23:21:16.412Z,28.40
2022-10-13T23:23:48.035Z,28.70
2022-10-13T23:26:17.801Z,29.30
2022-10-13T23:28:46.660Z,31.30
2022-10-13T23:31:17.443Z,26.90
2022-10-13T23:33:46.071Z,22.70
2022-10-13T23:36:17.994Z,26.70
2022-10-13T23:38:54.853Z,25.20
2022-10-13T23:41:24.607Z,28.00
2022-10-13T23:43:53.824Z,29.20
2022-10-13T23:46:22.173Z,29.90
2022-10-13T23:48:50.809Z,31.10
2022-10-13T23:51:23.332Z,30.80
2022-10-13T23:53:53.273Z,29.40
2022-10-13T23:56:22.096Z,29.60
2022-10-13T23:58:50.757Z,24.90
